Terminal Aerodrome Forecast
Issued by NWS

Current Version | Previous Version | Graphics & Text | Print | Product List | Glossary On
Versions: 1 2 3 4 5 6 7 8 9 10 11 12 13 14 15 16 17 18 19 20
544
FTUS41 KILN 270534
TAFLCK
TAF
KLCK 270534Z 2706/2806 19003KT P6SM BKN250
      TEMPO 2709/2711 5SM BR
     FM271300 20006KT P6SM BKN050 OVC150
     FM271700 20008KT P6SM VCSH BKN040
     FM271900 20008KT P6SM SCT040 BKN150
     FM280100 16003KT P6SM FEW040 SCT150=

USA.gov is the U.S. government's official web portal to all federal, state and local government web resources and services.